Time;durP1;ratioP1;P1;durP2;ratioP2;P2;SDS_P1;SDS_P2;PMS_P1;PMS_P2;Temp;Humidity;BMP_temperature;BMP_pressure;BME280_temperature;BME280_humidity;BME280_pressure;Samples;Min_cycle;Max_cycle;Signal;HPM_P1;HPM_P2
2021/01/17 00:00:32;;;;;;;19.67;13.43;;;1.10;85.30;;;;;;5054847;28;20048;-48
2021/01/17 00:03:00;;;;;;;17.27;13.52;;;0.70;86.80;;;;;;5073328;28;20033;-47
2021/01/17 00:05:27;;;;;;;13.05;9.45;;;0.70;88.10;;;;;;5072854;28;20037;-47
2021/01/17 00:07:53;;;;;;;19.55;10.95;;;0.50;88.40;;;;;;5073429;28;20442;-47
2021/01/17 00:10:24;;;;;;;16.58;12.18;;;0.20;90.40;;;;;;5073259;28;20037;-50
2021/01/17 00:12:51;;;;;;;17.83;11.93;;;0.30;90.70;;;;;;5073331;28;20040;-48
2021/01/17 00:15:17;;;;;;;17.90;12.52;;;0.20;90.90;;;;;;5073485;28;20099;-48
2021/01/17 00:17:44;;;;;;;18.00;12.60;;;0.20;91.30;;;;;;5073325;28;20032;-49
2021/01/17 00:20:22;;;;;;;17.17;12.07;;;0.40;91.10;;;;;;5073255;28;20392;-47
2021/01/17 00:22:49;;;;;;;16.48;10.98;;;0.30;91.30;;;;;;5055030;28;20127;-47
2021/01/17 00:25:17;;;;;;;13.40;8.65;;;0.20;91.50;;;;;;5073174;28;20060;-46
2021/01/17 00:27:44;;;;;;;19.95;13.70;;;0.30;95.90;;;;;;5073183;28;20131;-46
2021/01/17 00:30:11;;;;;;;21.45;13.80;;;0.40;95.20;;;;;;5072985;28;20044;-45
2021/01/17 00:32:37;;;;;;;20.23;13.00;;;0.40;94.30;;;;;;5014815;28;20049;-49
2021/01/17 00:35:04;;;;;;;16.33;10.35;;;0.10;96.30;;;;;;5031114;28;20532;-47
2021/01/17 00:37:30;;;;;;;16.33;11.30;;;0.20;95.10;;;;;;4991754;28;20034;-46
2021/01/17 00:39:56;;;;;;;19.27;13.02;;;0.30;94.50;;;;;;4991829;28;20442;-49
2021/01/17 00:42:22;;;;;;;14.20;10.88;;;0.20;94.80;;;;;;4992256;28;20039;-46
2021/01/17 00:44:50;;;;;;;18.13;12.20;;;0.30;94.30;;;;;;4991813;28;20501;-49
2021/01/17 00:47:16;;;;;;;14.55;9.25;;;0.40;94.10;;;;;;4991947;28;20418;-51
2021/01/17 00:49:45;;;;;;;16.35;11.27;;;0.10;94.30;;;;;;4991721;28;20521;-47
2021/01/17 00:52:18;;;;;;;16.80;11.40;;;0.30;95.00;;;;;;4991578;28;20031;-50
2021/01/17 00:54:45;;;;;;;14.45;9.80;;;0.20;94.90;;;;;;4992066;28;20475;-48
2021/01/17 00:57:11;;;;;;;17.30;12.00;;;0.20;95.10;;;;;;4991953;28;20046;-48
2021/01/17 00:59:36;;;;;;;16.55;9.73;;;0.30;95.50;;;;;;4991748;28;20040;-48
2021/01/17 01:02:04;;;;;;;19.42;12.82;;;-0.10;94.70;;;;;;4991595;28;20062;-50
2021/01/17 01:04:30;;;;;;;17.85;12.43;;;0.20;99.90;;;;;;4991782;28;20538;-45
2021/01/17 01:06:55;;;;;;;16.80;11.57;;;0.10;97.40;;;;;;4975523;28;20092;-48
2021/01/17 01:09:22;;;;;;;16.80;11.88;;;;;;;;;;4956083;28;20417;-49
2021/01/17 01:11:48;;;;;;;20.38;12.98;;;;;;;;;;5033838;28;20041;-50
2021/01/17 01:14:14;;;;;;;16.90;11.80;;;;;;;;;;5057755;28;20040;-47
2021/01/17 01:16:40;;;;;;;18.17;12.20;;;0.30;99.90;;;;;;5076932;28;20087;-50
2021/01/17 01:19:09;;;;;;;16.95;11.95;;;0.40;98.20;;;;;;5076697;28;20033;-48
2021/01/17 01:21:35;;;;;;;17.40;12.60;;;0.40;96.70;;;;;;5076462;28;20037;-48
2021/01/17 01:24:01;;;;;;;18.55;12.38;;;0.40;93.10;;;;;;5057924;28;20047;-48
2021/01/17 01:26:34;;;;;;;16.13;11.07;;;0.50;92.50;;;;;;5076214;28;20064;-47
2021/01/17 01:29:00;;;;;;;17.10;11.30;;;0.50;92.40;;;;;;5076306;28;20031;-48
2021/01/17 01:31:26;;;;;;;18.23;12.63;;;0.50;92.30;;;;;;5076272;28;20124;-49
2021/01/17 01:33:52;;;;;;;19.88;12.85;;;0.40;92.40;;;;;;5076319;28;20064;-51
2021/01/17 01:36:19;;;;;;;16.92;12.55;;;0.40;92.50;;;;;;5076079;28;20056;-46
2021/01/17 01:38:45;;;;;;;15.68;11.32;;;;;;;;;;5057828;28;20040;-49
2021/01/17 01:41:11;;;;;;;16.25;11.38;;;;;;;;;;5075963;28;20528;-49
2021/01/17 01:43:38;;;;;;;16.48;11.88;;;;;;;;;;5076170;28;20029;-50
2021/01/17 01:46:04;;;;;;;15.80;12.00;;;;;;;;;;5075973;28;20111;-48
2021/01/17 01:48:31;;;;;;;16.17;10.90;;;;;;;;;;5076538;28;20028;-47
2021/01/17 01:50:56;;;;;;;14.25;8.55;;;0.40;99.90;;;;;;5075906;28;20040;-48
2021/01/17 01:53:22;;;;;;;14.70;10.98;;;0.00;93.40;;;;;;5075995;28;20033;-47
2021/01/17 01:55:48;;;;;;;16.65;10.43;;;0.20;93.50;;;;;;5075900;28;20094;-50
2021/01/17 01:58:17;;;;;;;14.43;10.20;;;0.10;93.40;;;;;;5075670;28;20064;-45
2021/01/17 02:00:43;;;;;;;14.88;11.40;;;0.10;93.40;;;;;;5075694;28;20450;-48
2021/01/17 02:03:09;;;;;;;15.50;10.52;;;0.20;93.40;;;;;;5075887;28;20025;-49
2021/01/17 02:05:34;;;;;;;14.27;10.23;;;0.10;93.30;;;;;;5075422;28;20407;-51
2021/01/17 02:08:15;;;;;;;16.98;12.10;;;0.10;93.30;;;;;;5075618;28;20036;-48
2021/01/17 02:10:43;;;;;;;19.85;12.27;;;0.10;93.70;;;;;;5057008;28;20055;-49
2021/01/17 02:13:23;;;;;;;16.52;11.68;;;0.00;93.80;;;;;;5075524;28;20404;-49
2021/01/17 02:15:54;;;;;;;14.82;11.98;;;0.10;93.70;;;;;;5075437;28;20388;-49
2021/01/17 02:18:22;;;;;;;16.95;12.13;;;0.20;93.40;;;;;;5075574;28;20025;-48
2021/01/17 02:20:50;;;;;;;15.70;10.68;;;0.20;93.30;;;;;;5075203;28;20396;-49
2021/01/17 02:23:25;;;;;;;16.52;11.75;;;0.20;93.30;;;;;;5075373;28;20083;-49
2021/01/17 02:25:51;;;;;;;17.52;12.55;;;0.10;93.50;;;;;;5074190;28;20120;-50
2021/01/17 02:28:19;;;;;;;18.85;12.85;;;0.20;93.40;;;;;;5075412;28;20039;-49
2021/01/17 02:30:49;;;;;;;18.33;13.50;;;0.20;93.40;;;;;;5074809;28;20048;-46
2021/01/17 02:33:20;;;;;;;18.63;12.90;;;0.30;93.20;;;;;;5075230;28;20354;-47
2021/01/17 02:35:47;;;;;;;16.60;12.47;;;0.40;93.10;;;;;;5075027;28;20373;-48
2021/01/17 02:38:34;;;;;;;18.77;12.85;;;0.50;93.50;;;;;;5075032;28;20040;-46
2021/01/17 02:41:11;;;;;;;21.77;14.73;;;0.50;94.00;;;;;;5074822;28;20477;-49
2021/01/17 02:43:38;;;;;;;17.02;12.82;;;0.50;93.90;;;;;;5074835;28;20089;-48
2021/01/17 02:46:04;;;;;;;17.67;12.85;;;0.70;95.80;;;;;;5074917;28;20392;-50
2021/01/17 02:48:30;;;;;;;19.20;13.23;;;0.60;92.90;;;;;;5074910;28;20032;-46
2021/01/17 02:50:55;;;;;;;20.00;14.40;;;0.60;92.70;;;;;;5074537;28;20036;-50
2021/01/17 02:53:44;;;;;;;20.27;14.20;;;0.60;92.60;;;;;;5074707;28;20499;-47
2021/01/17 02:56:16;;;;;;;19.02;12.85;;;0.70;92.50;;;;;;5074798;28;20036;-46
2021/01/17 02:58:45;;;;;;;20.27;13.93;;;0.60;92.90;;;;;;5074561;28;20544;-48
2021/01/17 03:01:12;;;;;;;18.25;13.57;;;0.70;92.40;;;;;;5074658;28;20028;-48
2021/01/17 03:03:42;;;;;;;20.77;14.85;;;0.60;92.60;;;;;;5074454;28;20469;-49
2021/01/17 03:06:09;;;;;;;20.35;14.60;;;0.70;92.50;;;;;;5074431;28;20117;-49
2021/01/17 03:08:37;;;;;;;20.25;13.95;;;0.90;92.30;;;;;;5039558;28;20136;-47
2021/01/17 03:11:04;;;;;;;18.77;13.35;;;1.00;91.90;;;;;;5074175;28;20511;-48
2021/01/17 03:13:35;;;;;;;18.40;13.70;;;1.10;91.80;;;;;;5074251;28;20081;-50
2021/01/17 03:16:01;;;;;;;20.27;14.55;;;1.00;91.90;;;;;;5074377;28;20040;-47
2021/01/17 03:18:26;;;;;;;19.17;14.30;;;0.80;92.00;;;;;;5074212;28;20545;-49
2021/01/17 03:20:52;;;;;;;21.95;14.18;;;0.90;92.00;;;;;;5074284;28;20062;-51
2021/01/17 03:23:18;;;;;;;18.60;13.20;;;0.80;92.40;;;;;;5074191;28;20114;-50
2021/01/17 03:25:44;;;;;;;18.80;13.43;;;0.80;92.30;;;;;;5073942;28;20039;-48
2021/01/17 03:28:09;;;;;;;17.98;13.50;;;0.70;92.70;;;;;;5074064;28;20025;-50
2021/01/17 03:30:35;;;;;;;18.58;12.90;;;0.80;92.40;;;;;;5073798;28;20052;-48
2021/01/17 03:33:01;;;;;;;17.98;12.27;;;0.80;92.30;;;;;;5073833;28;20103;-47
2021/01/17 03:35:26;;;;;;;16.50;11.48;;;0.60;92.70;;;;;;5074073;28;20025;-49
2021/01/17 03:37:52;;;;;;;15.77;11.63;;;0.60;92.70;;;;;;5073727;28;20133;-49
2021/01/17 03:40:18;;;;;;;15.90;11.55;;;0.50;92.90;;;;;;5074093;28;20035;-45
2021/01/17 03:42:44;;;;;;;14.40;11.02;;;0.50;92.80;;;;;;5073722;28;20025;-48
2021/01/17 03:45:10;;;;;;;13.40;10.43;;;0.40;93.10;;;;;;5073740;28;20175;-47
2021/01/17 03:47:36;;;;;;;16.13;11.10;;;0.40;93.00;;;;;;5073679;28;20090;-47
2021/01/17 03:50:02;;;;;;;14.15;9.80;;;0.30;93.20;;;;;;5073535;28;20028;-50
2021/01/17 03:52:27;;;;;;;15.80;10.20;;;0.20;93.30;;;;;;5073792;28;20028;-50
2021/01/17 03:54:53;;;;;;;13.50;10.25;;;0.30;93.40;;;;;;5073999;28;20446;-47
2021/01/17 03:57:19;;;;;;;13.23;8.70;;;0.30;93.30;;;;;;5073840;28;20107;-49
2021/01/17 03:59:45;;;;;;;15.98;10.65;;;0.20;93.40;;;;;;5073733;28;20029;-47
2021/01/17 04:02:10;;;;;;;17.40;11.80;;;0.20;93.60;;;;;;5073950;28;20384;-48
2021/01/17 04:04:36;;;;;;;16.58;12.48;;;0.30;93.60;;;;;;5055040;28;20488;-48
2021/01/17 04:07:02;;;;;;;14.55;11.02;;;0.30;93.30;;;;;;5073819;28;20039;-47
2021/01/17 04:09:28;;;;;;;15.85;12.02;;;0.20;93.70;;;;;;5055067;28;20430;-48
2021/01/17 04:11:53;;;;;;;16.55;12.23;;;0.30;96.50;;;;;;5073807;28;20040;-46
2021/01/17 04:14:19;;;;;;;15.82;11.80;;;0.10;94.00;;;;;;5074117;28;20115;-51
2021/01/17 04:16:49;;;;;;;14.73;10.25;;;0.10;94.00;;;;;;5073603;28;20472;-51
2021/01/17 04:19:15;;;;;;;15.93;10.75;;;0.10;94.00;;;;;;5073444;28;20067;-51
2021/01/17 04:21:41;;;;;;;15.75;10.68;;;0.10;93.90;;;;;;5073435;28;20052;-46
2021/01/17 04:24:07;;;;;;;15.30;10.82;;;0.10;93.80;;;;;;5055220;28;20068;-49
2021/01/17 04:26:33;;;;;;;17.00;12.32;;;0.10;93.90;;;;;;5054998;28;20044;-47
2021/01/17 04:28:58;;;;;;;14.77;11.05;;;0.10;93.80;;;;;;5073440;28;20040;-47
2021/01/17 04:31:24;;;;;;;14.35;10.07;;;0.10;93.80;;;;;;5073160;28;20052;-45
2021/01/17 04:33:50;;;;;;;16.02;11.07;;;0.10;93.80;;;;;;5073425;28;20380;-48
2021/01/17 04:36:16;;;;;;;16.40;11.45;;;0.10;93.90;;;;;;5073681;28;20048;-49
2021/01/17 04:38:41;;;;;;;17.05;12.02;;;0.10;93.60;;;;;;5073129;28;20068;-49
2021/01/17 04:41:12;;;;;;;14.95;10.27;;;0.20;93.60;;;;;;5073165;28;20043;-52
2021/01/17 04:43:53;;;;;;;16.33;11.10;;;0.10;93.60;;;;;;5073409;28;20495;-50
2021/01/17 04:46:21;;;;;;;17.77;12.52;;;0.10;93.60;;;;;;5073181;28;20086;-49
2021/01/17 04:48:48;;;;;;;14.55;10.02;;;0.10;93.70;;;;;;5075019;28;20033;-49
2021/01/17 04:51:16;;;;;;;17.25;12.30;;;0.10;93.80;;;;;;5077049;28;20055;-47
2021/01/17 04:53:42;;;;;;;16.75;12.13;;;0.20;93.70;;;;;;5077042;28;20111;-47
2021/01/17 04:56:42;;;;;;;15.73;11.57;;;0.30;93.40;;;;;;5077327;28;20031;-50
2021/01/17 04:59:10;;;;;;;16.33;11.40;;;0.30;93.10;;;;;;5015091;28;20050;-51
2021/01/17 05:01:44;;;;;;;16.70;11.73;;;0.20;93.50;;;;;;5014956;28;20034;-51
2021/01/17 05:04:46;;;;;;;15.57;11.00;;;0.30;93.20;;;;;;4999015;28;20048;-50
2021/01/17 05:07:20;;;;;;;14.95;10.77;;;0.30;93.30;;;;;;5015068;28;20061;-52
2021/01/17 05:10:03;;;;;;;16.55;11.38;;;0.30;93.20;;;;;;5014892;28;20049;-50
2021/01/17 05:12:56;;;;;;;16.80;11.27;;;0.30;93.20;;;;;;5014875;28;20030;-52
2021/01/17 05:15:22;;;;;;;15.90;11.13;;;0.40;93.20;;;;;;5014745;28;20445;-49
2021/01/17 05:17:49;;;;;;;14.90;10.95;;;0.40;93.00;;;;;;5014842;28;20034;-50
2021/01/17 05:20:15;;;;;;;15.60;10.98;;;0.50;92.90;;;;;;5014785;28;20049;-47
2021/01/17 05:22:44;;;;;;;16.02;10.88;;;0.50;92.80;;;;;;4982579;28;20070;-49
2021/01/17 05:25:10;;;;;;;16.55;11.63;;;0.60;92.60;;;;;;5015252;28;20052;-50
2021/01/17 05:27:38;;;;;;;16.98;12.10;;;0.70;92.50;;;;;;5014683;28;20038;-48
2021/01/17 05:30:06;;;;;;;16.83;13.40;;;0.70;92.40;;;;;;5014402;28;20529;-49
2021/01/17 05:32:32;;;;;;;16.20;13.38;;;0.80;92.20;;;;;;4998230;28;20052;-50
2021/01/17 05:34:59;;;;;;;17.15;12.15;;;0.90;92.00;;;;;;5033545;28;20048;-48
2021/01/17 05:37:25;;;;;;;16.95;11.55;;;;;;;;;;5076537;28;20040;-47
2021/01/17 05:40:07;;;;;;;16.80;12.05;;;0.90;91.80;;;;;;5076327;28;20028;-48
2021/01/17 05:42:43;;;;;;;18.20;10.98;;;0.90;92.40;;;;;;5057605;28;20488;-50
2021/01/17 05:45:16;;;;;;;15.80;11.38;;;0.70;92.30;;;;;;5075928;28;20033;-50
2021/01/17 05:47:52;;;;;;;18.25;12.50;;;0.50;92.30;;;;;;5076046;28;20039;-50
2021/01/17 05:50:19;;;;;;;14.60;10.32;;;0.80;92.50;;;;;;5075947;28;20094;-47
2021/01/17 05:52:50;;;;;;;16.42;12.05;;;0.90;91.90;;;;;;5075853;28;20033;-51
2021/01/17 05:55:16;;;;;;;16.83;11.82;;;1.00;91.60;;;;;;5076268;28;20028;-47
2021/01/17 05:57:42;;;;;;;17.60;12.35;;;0.90;91.70;;;;;;5076513;28;20044;-50
2021/01/17 06:00:09;;;;;;;15.93;11.65;;;0.80;92.10;;;;;;5075572;28;20032;-48
2021/01/17 06:02:35;;;;;;;16.92;12.63;;;0.90;92.00;;;;;;5076012;28;20048;-48
2021/01/17 06:05:03;;;;;;;16.05;11.30;;;1.00;91.80;;;;;;5076274;28;20415;-48
2021/01/17 06:07:31;;;;;;;16.73;11.10;;;1.00;91.70;;;;;;5057951;28;20481;-51
2021/01/17 06:10:03;;;;;;;19.08;12.70;;;0.90;91.80;;;;;;5075644;28;20036;-50
2021/01/17 06:12:32;;;;;;;14.93;11.30;;;0.90;92.00;;;;;;5075495;28;20035;-50
2021/01/17 06:15:12;;;;;;;16.90;12.20;;;0.70;92.00;;;;;;5074442;28;20033;-46
2021/01/17 06:17:47;;;;;;;17.17;12.90;;;0.80;92.20;;;;;;5074577;28;20074;-48
2021/01/17 06:20:26;;;;;;;15.88;11.65;;;0.70;92.70;;;;;;5074238;28;20086;-50
2021/01/17 06:22:59;;;;;;;18.23;12.13;;;0.90;92.20;;;;;;5074240;28;20035;-51
2021/01/17 06:25:30;;;;;;;16.80;12.27;;;0.80;92.10;;;;;;5073986;28;20098;-50
2021/01/17 06:28:15;;;;;;;18.15;12.18;;;1.10;91.90;;;;;;5073964;28;20025;-48
2021/01/17 06:30:42;;;;;;;17.95;13.20;;;1.20;91.30;;;;;;5073722;28;20527;-49
2021/01/17 06:33:08;;;;;;;17.23;13.20;;;1.40;91.10;;;;;;5073956;28;20060;-47
2021/01/17 06:35:37;;;;;;;18.35;13.55;;;1.30;90.70;;;;;;5073940;28;20037;-49
2021/01/17 06:38:20;;;;;;;33.40;20.00;;;1.40;90.60;;;;;;5074182;28;20103;-46
2021/01/17 06:40:48;;;;;;;19.00;14.00;;;1.00;90.90;;;;;;5073787;28;20097;-46
2021/01/17 06:43:15;;;;;;;26.58;17.73;;;1.20;91.00;;;;;;5073876;28;20102;-44
2021/01/17 06:45:43;;;;;;;19.05;15.25;;;1.10;91.20;;;;;;5054964;28;20039;-45
2021/01/17 06:48:21;;;;;;;20.58;14.63;;;1.20;91.10;;;;;;5073652;28;20060;-45
2021/01/17 06:50:46;;;;;;;20.77;15.57;;;1.30;91.00;;;;;;5073756;28;20043;-48
2021/01/17 06:53:24;;;;;;;44.45;30.83;;;1.40;90.60;;;;;;5073339;28;20025;-49
2021/01/17 06:56:16;;;;;;;18.73;14.20;;;1.30;90.90;;;;;;5073509;28;20028;-50
2021/01/17 06:58:45;;;;;;;15.63;12.90;;;1.10;91.30;;;;;;5011477;28;20033;-47
2021/01/17 07:01:11;;;;;;;15.27;12.00;;;1.10;91.20;;;;;;4994958;28;20104;-50
2021/01/17 07:04:06;;;;;;;17.13;13.10;;;1.10;90.90;;;;;;4992073;28;20206;-50
2021/01/17 07:06:45;;;;;;;16.13;12.27;;;1.30;90.90;;;;;;5001353;28;20030;-44
2021/01/17 07:09:41;;;;;;;17.85;13.15;;;1.40;90.50;;;;;;5000572;28;20087;-49
2021/01/17 07:12:09;;;;;;;18.10;12.00;;;1.70;90.40;;;;;;4980785;28;20068;-47
2021/01/17 07:14:40;;;;;;;16.45;12.38;;;1.70;88.90;;;;;;4991928;28;20402;-50
2021/01/17 07:17:09;;;;;;;16.58;12.63;;;1.50;93.10;;;;;;4992060;28;20038;-50
2021/01/17 07:19:46;;;;;;;18.27;13.27;;;1.70;95.00;;;;;;4994272;28;20362;-54
2021/01/17 07:22:16;;;;;;;16.33;12.35;;;1.60;90.90;;;;;;5007152;28;20448;-47
2021/01/17 07:24:46;;;;;;;17.55;13.05;;;1.40;90.30;;;;;;5003993;28;20583;-47
2021/01/17 07:27:24;;;;;;;17.15;12.25;;;1.70;90.40;;;;;;4992177;28;20026;-49
2021/01/17 07:29:52;;;;;;;18.70;13.25;;;1.80;88.40;;;;;;4988451;28;20046;-57
2021/01/17 07:32:38;;;;;;;18.17;13.43;;;1.70;90.10;;;;;;5004959;28;20042;-56
2021/01/17 07:35:11;;;;;;;25.80;19.15;;;1.90;89.40;;;;;;5007292;28;20087;-52
2021/01/17 07:37:41;;;;;;;39.15;26.88;;;2.00;88.60;;;;;;5013867;28;20394;-48
2021/01/17 07:40:08;;;;;;;24.50;17.42;;;2.20;88.40;;;;;;5056432;28;20077;-49
2021/01/17 07:42:36;;;;;;;29.98;24.02;;;2.70;90.50;;;;;;5032841;28;20043;-50
2021/01/17 07:45:16;;;;;;;25.40;21.17;;;2.30;87.20;;;;;;5032726;28;20124;-53
2021/01/17 07:47:43;;;;;;;16.95;12.98;;;;;;;;;;5030908;28;20048;-53
2021/01/17 07:50:11;;;;;;;20.77;16.42;;;2.40;93.20;;;;;;5044667;28;20048;-49
2021/01/17 07:52:51;;;;;;;19.27;13.82;;;2.20;94.10;;;;;;5052386;28;20029;-52
2021/01/17 07:55:20;;;;;;;20.80;14.23;;;2.10;97.80;;;;;;5052380;28;20032;-51
2021/01/17 07:57:50;;;;;;;22.50;16.20;;;2.10;97.60;;;;;;5047959;28;20025;-53
2021/01/17 08:00:16;;;;;;;23.13;17.90;;;2.40;97.20;;;;;;5039048;28;20029;-51
2021/01/17 08:02:49;;;;;;;22.05;15.00;;;2.50;87.40;;;;;;5041117;28;20064;-55
2021/01/17 08:05:15;;;;;;;19.42;14.70;;;2.10;88.10;;;;;;5045953;28;20113;-53
2021/01/17 08:07:40;;;;;;;43.35;34.92;;;2.10;88.80;;;;;;5044953;28;20112;-52
2021/01/17 08:10:07;;;;;;;28.35;20.30;;;2.30;88.50;;;;;;5035081;28;20092;-52
2021/01/17 08:12:36;;;;;;;30.08;21.92;;;2.30;86.90;;;;;;5041259;28;20503;-55
2021/01/17 08:15:17;;;;;;;47.33;30.67;;;;;;;;;;5044867;28;20035;-50
2021/01/17 08:17:44;;;;;;;39.90;28.58;;;2.70;85.80;;;;;;5032410;28;20374;-51
2021/01/17 08:20:18;;;;;;;44.28;30.90;;;2.70;86.60;;;;;;5049421;28;20040;-55
2021/01/17 08:22:49;;;;;;;50.25;30.50;;;2.70;87.00;;;;;;5053904;28;20029;-56
2021/01/17 08:25:16;;;;;;;44.45;29.70;;;2.70;85.30;;;;;;5070918;28;20033;-54
2021/01/17 08:27:45;;;;;;;26.23;17.35;;;2.60;86.10;;;;;;5056282;28;20385;-51
2021/01/17 08:30:18;;;;;;;33.00;22.70;;;2.60;85.10;;;;;;5074113;28;20043;-53
2021/01/17 08:32:54;;;;;;;38.83;26.20;;;2.70;86.40;;;;;;5076272;28;20024;-52
2021/01/17 08:35:20;;;;;;;36.92;26.08;;;3.00;90.90;;;;;;5076168;28;20027;-52
2021/01/17 08:37:46;;;;;;;27.77;21.25;;;3.10;94.30;;;;;;5076098;28;20431;-50
2021/01/17 08:40:32;;;;;;;26.27;19.75;;;3.00;84.60;;;;;;5076312;28;20469;-52
2021/01/17 08:43:06;;;;;;;24.00;18.35;;;3.10;84.70;;;;;;5062099;28;20076;-57
2021/01/17 08:45:46;;;;;;;22.45;16.95;;;3.20;83.80;;;;;;5076200;28;20033;-54
2021/01/17 08:48:17;;;;;;;23.60;16.80;;;3.10;84.60;;;;;;5076018;28;20021;-53
2021/01/17 08:51:15;;;;;;;22.20;15.10;;;3.10;84.20;;;;;;5075737;28;20357;-55
2021/01/17 08:53:41;;;;;;;22.83;17.17;;;2.80;85.30;;;;;;5075777;28;20303;-59
2021/01/17 08:56:14;;;;;;;22.90;17.35;;;2.90;85.70;;;;;;5067456;28;20025;-49
2021/01/17 08:58:44;;;;;;;22.05;16.67;;;2.90;85.50;;;;;;5055886;28;20392;-56
2021/01/17 09:01:11;;;;;;;21.88;16.98;;;2.90;85.30;;;;;;5057098;28;20032;-58
2021/01/17 09:03:43;;;;;;;23.02;16.13;;;3.00;84.60;;;;;;5056894;28;20496;-55
2021/01/17 09:06:11;;;;;;;25.88;17.92;;;3.00;84.80;;;;;;5057177;28;20021;-53
2021/01/17 09:08:42;;;;;;;19.80;14.93;;;3.10;85.30;;;;;;5056595;28;20025;-54
2021/01/17 09:11:29;;;;;;;20.73;15.90;;;3.00;84.50;;;;;;5056613;28;20075;-53
2021/01/17 09:14:07;;;;;;;21.63;14.63;;;2.90;84.90;;;;;;5055200;28;20036;-56
2021/01/17 09:16:36;;;;;;;23.60;17.38;;;2.90;84.50;;;;;;5055504;28;20021;-50
2021/01/17 09:19:08;;;;;;;47.03;30.85;;;2.90;85.60;;;;;;5055459;28;20024;-50
2021/01/17 09:21:34;;;;;;;;;;;2.70;86.30;;;;;;5053738;28;20498;-55
2021/01/17 09:24:06;;;;;;;21.13;15.63;;;2.90;86.10;;;;;;5055338;28;19995;-48
2021/01/17 09:26:32;;;;;;;20.40;15.63;;;3.00;85.30;;;;;;5021846;28;20040;-58
2021/01/17 09:28:58;;;;;;;20.08;14.32;;;3.40;89.30;;;;;;5072219;28;20384;-57
2021/01/17 09:31:27;;;;;;;20.25;14.63;;;3.30;89.20;;;;;;5088476;28;20400;-54
2021/01/17 09:33:54;;;;;;;19.75;15.05;;;3.20;90.00;;;;;;5032108;28;20068;-52
2021/01/17 09:36:25;;;;;;;18.15;13.50;;;3.30;89.10;;;;;;5032796;28;20065;-53
2021/01/17 09:38:51;;;;;;;18.92;15.48;;;3.00;88.70;;;;;;5032752;28;20088;-51
2021/01/17 09:41:25;;;;;;;20.15;14.95;;;3.20;88.80;;;;;;5032588;28;20048;-56
2021/01/17 09:43:52;;;;;;;21.35;15.45;;;3.10;88.50;;;;;;5032557;28;20112;-51
2021/01/17 09:46:23;;;;;;;17.73;13.63;;;3.30;89.20;;;;;;5033700;28;20032;-51
2021/01/17 09:48:56;;;;;;;24.02;17.27;;;3.30;83.50;;;;;;5033962;28;20076;-51
2021/01/17 09:51:23;;;;;;;18.77;13.82;;;3.30;83.20;;;;;;5033887;28;20132;-49
2021/01/17 09:53:51;;;;;;;33.47;19.13;;;3.60;82.90;;;;;;5034316;28;20040;-55
2021/01/17 09:56:18;;;;;;;40.60;22.52;;;3.40;80.90;;;;;;5034271;28;20033;-56
2021/01/17 09:58:44;;;;;;;32.65;21.23;;;3.60;82.00;;;;;;5033952;28;20041;-49
2021/01/17 10:01:19;;;;;;;27.48;18.88;;;3.70;80.80;;;;;;5033937;28;20347;-52
2021/01/17 10:03:49;;;;;;;25.90;17.38;;;3.60;83.70;;;;;;5036481;28;20466;-52
2021/01/17 10:06:18;;;;;;;28.35;19.50;;;3.60;81.20;;;;;;5096265;28;20437;-55
2021/01/17 10:08:44;;;;;;;21.20;14.60;;;3.70;81.90;;;;;;5096000;28;20031;-49
2021/01/17 10:11:11;;;;;;;33.78;22.83;;;3.90;93.00;;;;;;5095623;28;20043;-54
2021/01/17 10:13:45;;;;;;;56.40;36.25;;;3.50;84.30;;;;;;5095733;28;20478;-56
2021/01/17 10:16:11;;;;;;;39.03;27.92;;;3.60;81.50;;;;;;5095994;28;20024;-58
2021/01/17 10:18:37;;;;;;;51.63;36.33;;;3.70;80.40;;;;;;5095679;28;20028;-52
2021/01/17 10:21:04;;;;;;;37.38;24.80;;;3.20;82.00;;;;;;5095798;28;20020;-49
2021/01/17 10:23:31;;;;;;;50.03;34.80;;;3.40;82.00;;;;;;5060383;28;20376;-47
2021/01/17 10:25:57;;;;;;;47.17;32.50;;;3.60;82.40;;;;;;5095440;28;20438;-56
2021/01/17 10:28:26;;;;;;;35.80;23.75;;;3.30;82.00;;;;;;5095644;28;20039;-57
2021/01/17 10:30:59;;;;;;;37.90;26.70;;;3.30;82.50;;;;;;5095111;28;20052;-59
2021/01/17 10:33:28;;;;;;;26.58;19.50;;;3.40;82.00;;;;;;5087358;28;20029;-50
2021/01/17 10:35:54;;;;;;;26.08;20.30;;;3.30;82.00;;;;;;5073865;28;20051;-53
2021/01/17 10:38:20;;;;;;;25.60;17.75;;;3.50;82.10;;;;;;5075059;28;20029;-54
2021/01/17 10:40:47;;;;;;;28.08;19.65;;;3.60;81.80;;;;;;5074920;28;20082;-54
2021/01/17 10:43:23;;;;;;;21.77;15.45;;;3.50;82.60;;;;;;5071692;28;20522;-57
2021/01/17 10:45:59;;;;;;;34.78;19.92;;;3.50;81.30;;;;;;5073389;28;20035;-57
2021/01/17 10:48:25;;;;;;;26.85;18.73;;;3.50;82.60;;;;;;5074820;28;20541;-52
2021/01/17 10:51:08;;;;;;;26.15;17.98;;;3.40;82.40;;;;;;5039738;28;20040;-57
2021/01/17 10:53:39;;;;;;;;;;;3.40;82.30;;;;;;5075425;28;20059;-46
2021/01/17 10:56:09;;;;;;;25.00;16.52;;;3.30;82.90;;;;;;5074622;28;20275;-55
2021/01/17 10:58:42;;;;;;;33.33;20.33;;;3.40;82.70;;;;;;5073098;28;20414;-51
2021/01/17 11:01:08;;;;;;;22.73;14.50;;;3.40;81.90;;;;;;5073581;28;20017;-52
2021/01/17 11:03:37;;;;;;;30.13;19.85;;;3.30;81.50;;;;;;5073107;28;20028;-51
2021/01/17 11:06:07;;;;;;;29.63;19.40;;;3.40;81.90;;;;;;5073431;28;20032;-50
2021/01/17 11:08:54;;;;;;;30.85;19.98;;;3.40;82.50;;;;;;5072899;28;20484;-52
2021/01/17 11:11:22;;;;;;;26.85;18.25;;;3.30;82.10;;;;;;5083547;28;20028;-53
2021/01/17 11:14:01;;;;;;;25.35;16.45;;;3.30;81.80;;;;;;5082611;28;20017;-50
2021/01/17 11:16:41;;;;;;;25.88;14.88;;;3.30;81.40;;;;;;5045227;28;20068;-55
2021/01/17 11:19:10;;;;;;;23.17;15.02;;;3.30;80.40;;;;;;5078302;28;20354;-50
2021/01/17 11:21:37;;;;;;;23.42;16.42;;;3.30;80.70;;;;;;5072553;28;20035;-46
2021/01/17 11:24:04;;;;;;;21.35;14.77;;;3.30;82.20;;;;;;5072361;28;20024;-51
2021/01/17 11:26:30;;;;;;;21.45;16.90;;;;;;;;;;5037556;28;20127;-49
2021/01/17 11:28:59;;;;;;;23.77;18.10;;;3.50;99.90;;;;;;5072834;28;20464;-54
2021/01/17 11:31:26;;;;;;;25.33;16.77;;;3.30;81.40;;;;;;5072462;28;20128;-47
2021/01/17 11:33:52;;;;;;;23.02;16.35;;;3.50;81.80;;;;;;5037326;28;20033;-47
2021/01/17 11:36:21;;;;;;;28.77;18.75;;;;;;;;;;5079065;28;20108;-52
2021/01/17 11:38:58;;;;;;;47.92;26.25;;;2.90;99.90;;;;;;5092939;28;20472;-49
2021/01/17 11:41:32;;;;;;;18.30;13.63;;;;;;;;;;5092971;28;20035;-52
2021/01/17 11:44:09;;;;;;;18.92;13.63;;;2.70;85.80;;;;;;5092792;28;20113;-52
2021/01/17 11:46:35;;;;;;;20.67;15.82;;;2.90;82.80;;;;;;5092584;28;20110;-52
2021/01/17 11:49:01;;;;;;;21.02;14.93;;;3.10;82.50;;;;;;5092340;28;20028;-51
2021/01/17 11:51:27;;;;;;;18.10;13.90;;;3.20;82.20;;;;;;5074173;28;20069;-52
2021/01/17 11:53:52;;;;;;;20.20;14.85;;;2.70;83.30;;;;;;5092724;28;20032;-53
2021/01/17 11:56:18;;;;;;;19.00;14.27;;;2.90;83.10;;;;;;5092180;28;20020;-50
2021/01/17 11:58:44;;;;;;;19.10;14.95;;;3.00;83.30;;;;;;5090236;28;20036;-50
2021/01/17 12:01:10;;;;;;;19.27;14.18;;;3.10;83.90;;;;;;5088067;28;20052;-51
2021/01/17 12:03:38;;;;;;;18.73;15.15;;;3.10;83.70;;;;;;5092787;28;20032;-52
2021/01/17 12:06:18;;;;;;;18.58;13.57;;;3.00;85.10;;;;;;5057192;28;20042;-48
2021/01/17 12:08:58;;;;;;;18.23;13.68;;;2.80;83.60;;;;;;5092680;28;20032;-50
2021/01/17 12:11:28;;;;;;;20.58;14.65;;;2.90;83.60;;;;;;5049676;28;20381;-49
2021/01/17 12:13:54;;;;;;;17.98;14.02;;;2.90;84.10;;;;;;5032794;28;20434;-51
2021/01/17 12:16:30;;;;;;;18.40;14.07;;;3.10;83.40;;;;;;5048586;28;20041;-47
2021/01/17 12:18:56;;;;;;;20.90;16.13;;;3.10;83.80;;;;;;5030587;28;20029;-52
2021/01/17 12:21:26;;;;;;;19.73;15.13;;;3.30;83.90;;;;;;5016259;28;20044;-52
2021/01/17 12:23:52;;;;;;;17.38;13.05;;;3.30;84.00;;;;;;5032766;28;20048;-47
2021/01/17 12:26:19;;;;;;;16.08;12.82;;;3.40;81.80;;;;;;5046963;28;20041;-52
2021/01/17 12:28:47;;;;;;;14.70;10.88;;;2.90;83.10;;;;;;4999966;28;20033;-49
2021/01/17 12:31:13;;;;;;;14.20;10.68;;;2.90;82.50;;;;;;5049543;28;20069;-48
2021/01/17 12:33:39;;;;;;;16.38;11.57;;;3.00;81.40;;;;;;5049799;28;20025;-51
2021/01/17 12:36:10;;;;;;;17.58;12.73;;;3.20;81.40;;;;;;5049630;28;20140;-49
2021/01/17 12:38:36;;;;;;;16.08;12.50;;;3.30;82.20;;;;;;5001869;28;20148;-48
2021/01/17 12:41:08;;;;;;;17.33;13.10;;;3.20;81.40;;;;;;5049904;28;20614;-48
2021/01/17 12:43:33;;;;;;;17.60;13.07;;;3.20;81.00;;;;;;5071347;28;20060;-50
2021/01/17 12:45:59;;;;;;;15.43;10.82;;;3.20;80.60;;;;;;5072012;28;20036;-51
2021/01/17 12:48:25;;;;;;;13.63;11.65;;;2.90;80.80;;;;;;5071890;28;20111;-51
2021/01/17 12:50:51;;;;;;;13.63;11.20;;;2.90;81.40;;;;;;5071945;28;20042;-51
2021/01/17 12:53:16;;;;;;;16.17;11.48;;;2.80;80.50;;;;;;5036391;28;20039;-48